Time;durP1;ratioP1;P1;durP2;ratioP2;P2;SDS_P1;SDS_P2;PMS_P1;PMS_P2;Temp;Humidity;BMP_temperature;BMP_pressure;BME280_temperature;BME280_humidity;BME280_pressure;Samples;Min_cycle;Max_cycle;Signal;HPM_P1;HPM_P2
2022/03/26 00:00:52;;;;;;;29.90;19.97;;;9.60;1.00;;;;;;6258157;28;20253;-52
2022/03/26 00:03:55;;;;;;;26.13;19.57;;;9.50;1.00;;;;;;6264352;28;20308;-51
2022/03/26 00:06:58;;;;;;;28.07;21.30;;;9.50;1.00;;;;;;6272644;28;20319;-52
2022/03/26 00:10:01;;;;;;;28.20;20.77;;;9.50;1.00;;;;;;6258461;28;20659;-52
2022/03/26 00:13:05;;;;;;;26.67;20.27;;;9.50;1.00;;;;;;6277869;28;20229;-51
2022/03/26 00:16:08;;;;;;;33.17;21.07;;;9.50;1.00;;;;;;6282050;28;20233;-52
2022/03/26 00:19:11;;;;;;;29.23;19.43;;;9.50;1.00;;;;;;6257684;28;20246;-54
2022/03/26 00:22:14;;;;;;;33.73;20.67;;;9.50;1.00;;;;;;6257819;28;20468;-52
2022/03/26 00:25:17;;;;;;;26.60;19.73;;;9.60;1.00;;;;;;6257493;28;20233;-53
2022/03/26 00:28:21;;;;;;;26.77;20.30;;;9.60;1.00;;;;;;6256963;28;20252;-53
2022/03/26 00:31:24;;;;;;;33.80;20.87;;;9.60;1.00;;;;;;6258038;28;20299;-53
2022/03/26 00:34:27;;;;;;;33.97;21.17;;;9.70;1.00;;;;;;6258747;28;20238;-52
2022/03/26 00:37:29;;;;;;;36.40;21.63;;;9.60;1.00;;;;;;6281593;28;20237;-52
2022/03/26 00:40:32;;;;;;;31.37;20.77;;;9.70;1.00;;;;;;6282051;28;20363;-54
2022/03/26 00:43:36;;;;;;;31.30;21.47;;;9.80;1.00;;;;;;6265906;28;20581;-53
2022/03/26 00:46:40;;;;;;;30.03;19.80;;;9.80;1.00;;;;;;6263366;28;20245;-52
2022/03/26 00:49:43;;;;;;;30.83;21.40;;;9.90;1.00;;;;;;6258674;28;20256;-53
2022/03/26 00:52:46;;;;;;;22.80;19.17;;;9.90;1.00;;;;;;6257922;28;20375;-53
2022/03/26 00:55:48;;;;;;;26.73;20.47;;;9.80;1.00;;;;;;6257833;28;20532;-52
2022/03/26 00:58:53;;;;;;;33.43;20.53;;;9.90;1.00;;;;;;6257275;28;20325;-54
2022/03/26 01:01:57;;;;;;;30.47;19.30;;;9.80;1.00;;;;;;6269443;28;20670;-53
2022/03/26 01:04:59;;;;;;;32.37;20.87;;;9.80;1.00;;;;;;6276476;28;20316;-53
2022/03/26 01:08:02;;;;;;;36.13;20.80;;;9.80;1.00;;;;;;6257465;28;20226;-52
2022/03/26 01:11:05;;;;;;;25.97;20.20;;;9.80;1.00;;;;;;6266700;28;20724;-52
2022/03/26 01:14:09;;;;;;;31.87;22.70;;;9.80;1.00;;;;;;6271113;28;20754;-53
2022/03/26 01:17:12;;;;;;;28.77;21.93;;;9.80;1.00;;;;;;6264199;28;20240;-52
2022/03/26 01:20:17;;;;;;;26.80;20.07;;;9.80;1.00;;;;;;6269995;28;20291;-52
2022/03/26 01:23:21;;;;;;;29.47;21.20;;;9.80;1.00;;;;;;6266484;28;20643;-52
2022/03/26 01:26:23;;;;;;;33.83;21.83;;;9.70;1.00;;;;;;6261619;28;20339;-52
2022/03/26 01:29:28;;;;;;;33.00;23.17;;;9.70;1.00;;;;;;6261363;28;20325;-51
2022/03/26 01:32:31;;;;;;;30.07;21.97;;;9.70;1.00;;;;;;6262316;28;20411;-53
2022/03/26 01:35:35;;;;;;;34.07;21.73;;;9.60;1.00;;;;;;6279588;28;20259;-54
2022/03/26 01:38:38;;;;;;;33.77;23.40;;;9.60;1.00;;;;;;6285028;28;20240;-52
2022/03/26 01:41:40;;;;;;;33.33;22.43;;;9.60;1.00;;;;;;6283397;28;20234;-52
2022/03/26 01:44:45;;;;;;;35.67;22.87;;;9.50;1.00;;;;;;6264862;28;20307;-52
2022/03/26 01:47:47;;;;;;;29.40;22.07;;;9.50;1.00;;;;;;6261349;28;20391;-53
2022/03/26 01:50:50;;;;;;;32.30;23.10;;;9.50;1.00;;;;;;6261166;28;20237;-53
2022/03/26 01:53:53;;;;;;;34.73;24.23;;;9.50;1.00;;;;;;6260212;28;20388;-52
2022/03/26 01:56:57;;;;;;;32.77;23.47;;;9.40;1.00;;;;;;6260885;28;20263;-52
2022/03/26 02:00:04;;;;;;;37.57;24.67;;;9.40;1.00;;;;;;6260370;28;20329;-52
2022/03/26 02:03:08;;;;;;;31.37;22.70;;;9.40;1.00;;;;;;6262010;28;20348;-52
2022/03/26 02:06:11;;;;;;;37.13;23.63;;;9.30;1.00;;;;;;6283843;28;20256;-52
2022/03/26 02:09:15;;;;;;;35.20;24.13;;;9.40;1.00;;;;;;6284645;28;20498;-53
2022/03/26 02:12:25;;;;;;;35.13;24.93;;;9.30;1.00;;;;;;6281395;28;20233;-52
2022/03/26 02:15:30;;;;;;;41.77;24.37;;;9.30;1.00;;;;;;6275980;28;20572;-51
2022/03/26 02:18:32;;;;;;;41.23;24.60;;;9.30;1.00;;;;;;6285443;28;20290;-52
2022/03/26 02:21:37;;;;;;;34.17;23.93;;;9.20;1.00;;;;;;6285341;28;20750;-55
2022/03/26 02:24:40;;;;;;;38.30;23.77;;;9.20;1.00;;;;;;6277664;28;20622;-52
2022/03/26 02:27:42;;;;;;;41.70;25.23;;;9.20;1.00;;;;;;6259322;28;20255;-53
2022/03/26 02:30:45;;;;;;;42.40;26.00;;;9.30;1.00;;;;;;6259730;28;20234;-53
2022/03/26 02:33:49;;;;;;;40.20;25.03;;;9.20;1.00;;;;;;6264792;28;20233;-52
2022/03/26 02:36:56;;;;;;;37.90;24.60;;;9.20;1.00;;;;;;6281967;28;20316;-51
2022/03/26 02:39:58;;;;;;;37.23;23.43;;;9.20;1.00;;;;;;6284118;28;20294;-52
2022/03/26 02:43:02;;;;;;;41.93;25.23;;;9.10;1.00;;;;;;6276088;28;20740;-56
2022/03/26 02:46:05;;;;;;;38.63;25.80;;;9.10;1.00;;;;;;6284823;28;20812;-52
2022/03/26 02:49:09;;;;;;;37.43;24.13;;;9.10;1.00;;;;;;6284122;28;20248;-52
2022/03/26 02:52:13;;;;;;;38.40;25.53;;;9.10;1.00;;;;;;6270566;28;20978;-52
2022/03/26 02:55:16;;;;;;;38.53;25.27;;;9.00;1.00;;;;;;6259177;28;20315;-52
2022/03/26 02:58:19;;;;;;;38.20;24.23;;;9.00;1.00;;;;;;6258427;28;20304;-52
2022/03/26 03:01:23;;;;;;;36.50;26.07;;;9.00;1.00;;;;;;6259756;28;20710;-52
2022/03/26 03:04:27;;;;;;;43.63;26.23;;;9.00;1.00;;;;;;6269866;28;20403;-53
2022/03/26 03:07:32;;;;;;;41.40;26.80;;;9.00;1.00;;;;;;6284430;28;20316;-52
2022/03/26 03:10:35;;;;;;;37.73;25.77;;;8.90;1.00;;;;;;6277175;28;20367;-52
2022/03/26 03:13:39;;;;;;;42.37;25.53;;;8.90;1.00;;;;;;6278508;28;20647;-52
2022/03/26 03:16:42;;;;;;;40.03;25.50;;;8.80;1.00;;;;;;6280165;28;20307;-51
2022/03/26 03:19:45;;;;;;;39.77;24.83;;;8.90;1.00;;;;;;6259695;28;20237;-52
2022/03/26 03:22:49;;;;;;;44.10;26.17;;;8.90;1.00;;;;;;6259297;28;20723;-52
2022/03/26 03:25:52;;;;;;;37.83;26.33;;;8.90;1.00;;;;;;6259041;28;20293;-52
2022/03/26 03:28:54;;;;;;;40.70;26.33;;;8.80;1.00;;;;;;6258915;28;20324;-52
2022/03/26 03:31:57;;;;;;;36.10;26.37;;;8.80;1.00;;;;;;6259585;28;20359;-53
2022/03/26 03:35:00;;;;;;;34.13;25.23;;;8.80;1.00;;;;;;6276780;28;20233;-53
2022/03/26 03:38:04;;;;;;;40.80;25.83;;;8.80;1.00;;;;;;6282766;28;20237;-51
2022/03/26 03:41:06;;;;;;;39.27;26.53;;;8.70;1.00;;;;;;6281440;28;20283;-53
2022/03/26 03:44:10;;;;;;;36.03;25.70;;;8.70;1.00;;;;;;6273684;28;20286;-52
2022/03/26 03:47:12;;;;;;;36.50;26.57;;;8.70;1.00;;;;;;6283021;28;20249;-53
2022/03/26 03:50:16;;;;;;;39.13;25.17;;;8.70;1.00;;;;;;6262777;28;20234;-52
2022/03/26 03:53:20;;;;;;;37.07;25.90;;;8.70;1.00;;;;;;6246870;28;20783;-52
2022/03/26 03:56:23;;;;;;;35.07;25.30;;;8.70;1.00;;;;;;6258467;28;20355;-52
2022/03/26 03:59:26;;;;;;;44.30;27.17;;;8.70;1.00;;;;;;6257135;28;20325;-52
2022/03/26 04:02:29;;;;;;;38.90;27.40;;;8.70;1.00;;;;;;6259902;28;20375;-52
2022/03/26 04:05:32;;;;;;;37.67;26.53;;;8.60;1.00;;;;;;6276289;28;20252;-52
2022/03/26 04:08:36;;;;;;;38.03;26.40;;;8.60;1.00;;;;;;6267343;28;21089;-52
2022/03/26 04:11:40;;;;;;;41.50;27.77;;;8.60;1.00;;;;;;6272095;28;20312;-51
2022/03/26 04:14:44;;;;;;;38.43;25.93;;;8.60;1.00;;;;;;6281686;28;20418;-52
2022/03/26 04:17:49;;;;;;;44.37;28.93;;;8.50;1.00;;;;;;6260447;28;20813;-52
2022/03/26 04:20:52;;;;;;;42.87;28.40;;;8.60;1.00;;;;;;6258245;28;20706;-52
2022/03/26 04:23:56;;;;;;;38.67;27.27;;;8.50;1.00;;;;;;6258360;28;20317;-52
2022/03/26 04:26:58;;;;;;;38.23;27.40;;;8.40;1.00;;;;;;6258046;28;20317;-52
2022/03/26 04:30:01;;;;;;;42.93;28.20;;;8.40;1.00;;;;;;6257764;28;20317;-53
2022/03/26 04:33:04;;;;;;;40.20;28.43;;;8.40;1.00;;;;;;6262070;28;20260;-52
2022/03/26 04:36:07;;;;;;;43.83;28.33;;;8.40;1.00;;;;;;6276456;28;20229;-51
2022/03/26 04:39:11;;;;;;;38.90;27.47;;;8.30;1.00;;;;;;6276203;28;20294;-55
2022/03/26 04:42:14;;;;;;;43.40;29.30;;;8.20;1.00;;;;;;6283363;28;20336;-52
2022/03/26 04:45:17;;;;;;;45.53;29.37;;;8.20;1.00;;;;;;6281135;28;20303;-52
2022/03/26 04:48:20;;;;;;;42.30;28.10;;;8.20;1.00;;;;;;6266227;28;20241;-52
2022/03/26 04:51:23;;;;;;;43.67;29.70;;;8.20;1.00;;;;;;6284650;28;20289;-52
2022/03/26 04:54:28;;;;;;;42.90;30.23;;;8.20;1.00;;;;;;6283728;28;20343;-52
2022/03/26 04:57:31;;;;;;;43.27;29.77;;;8.20;1.00;;;;;;6286849;28;20248;-53
2022/03/26 05:00:34;;;;;;;45.43;29.43;;;8.20;1.00;;;;;;6292535;28;20232;-53
2022/03/26 05:03:37;;;;;;;43.37;28.93;;;8.10;1.00;;;;;;6283048;28;20741;-51
2022/03/26 05:06:39;;;;;;;44.03;29.40;;;8.10;1.00;;;;;;6286457;28;20238;-51
2022/03/26 05:09:43;;;;;;;48.40;31.83;;;8.00;1.00;;;;;;6285378;28;20259;-52
2022/03/26 05:12:47;;;;;;;47.23;29.10;;;8.10;1.00;;;;;;6290891;28;20375;-53
2022/03/26 05:15:50;;;;;;;48.77;31.17;;;8.00;1.00;;;;;;6279092;28;20283;-53
2022/03/26 05:18:53;;;;;;;51.90;32.83;;;8.00;1.00;;;;;;6272984;28;20233;-51
2022/03/26 05:21:56;;;;;;;47.23;32.70;;;8.00;1.00;;;;;;6272217;28;20225;-52
2022/03/26 05:25:00;;;;;;;53.30;33.20;;;8.00;1.00;;;;;;6271087;28;20320;-52
2022/03/26 05:28:03;;;;;;;53.57;33.20;;;8.10;1.00;;;;;;6277531;28;20392;-52
2022/03/26 05:31:07;;;;;;;50.93;33.60;;;8.10;1.00;;;;;;6281314;28;20233;-52
2022/03/26 05:34:10;;;;;;;53.37;32.73;;;8.00;1.00;;;;;;6282317;28;20320;-52
2022/03/26 05:37:13;;;;;;;49.47;32.73;;;8.00;1.00;;;;;;6286383;28;20440;-52
2022/03/26 05:40:18;;;;;;;48.03;32.90;;;8.10;1.00;;;;;;6282982;28;20245;-52
2022/03/26 05:43:21;;;;;;;53.67;33.07;;;8.10;1.00;;;;;;6285674;28;20261;-53
2022/03/26 05:46:24;;;;;;;51.17;32.87;;;8.10;1.00;;;;;;6280680;28;20318;-52
2022/03/26 05:49:26;;;;;;;53.03;33.10;;;8.20;1.00;;;;;;6280504;28;20241;-52
2022/03/26 05:52:29;;;;;;;47.93;32.37;;;8.20;1.00;;;;;;6285547;28;20315;-52
2022/03/26 05:55:33;;;;;;;47.90;31.57;;;8.20;1.00;;;;;;6278161;28;20412;-53
2022/03/26 05:58:36;;;;;;;48.73;31.97;;;8.30;1.00;;;;;;6275886;28;20266;-53
2022/03/26 06:01:39;;;;;;;47.93;32.10;;;8.40;1.00;;;;;;6288446;28;20378;-52
2022/03/26 06:04:41;;;;;;;47.57;32.60;;;8.50;1.00;;;;;;6284440;28;20269;-56
2022/03/26 06:07:44;;;;;;;48.83;30.87;;;8.50;1.00;;;;;;6277455;28;20340;-53
2022/03/26 06:10:48;;;;;;;48.80;31.30;;;8.60;1.00;;;;;;6286680;28;20423;-52
2022/03/26 06:13:51;;;;;;;50.93;32.60;;;8.60;1.00;;;;;;6292030;28;20868;-54
2022/03/26 06:16:53;;;;;;;43.23;29.70;;;8.70;1.00;;;;;;6283499;28;20533;-52
2022/03/26 06:19:57;;;;;;;46.30;30.73;;;8.70;1.00;;;;;;6279459;28;20229;-52
2022/03/26 06:23:00;;;;;;;44.97;31.43;;;8.80;1.00;;;;;;6288543;28;20236;-52
2022/03/26 06:26:08;;;;;;;47.33;31.53;;;8.80;1.00;;;;;;6281840;28;20233;-52
2022/03/26 06:29:12;;;;;;;44.40;30.90;;;8.80;1.00;;;;;;6288748;28;20375;-53
2022/03/26 06:32:14;;;;;;;50.73;30.47;;;8.90;1.00;;;;;;6285111;28;20668;-52
2022/03/26 06:35:17;;;;;;;45.73;30.97;;;8.90;1.00;;;;;;6279609;28;20244;-53
2022/03/26 06:38:20;;;;;;;46.50;31.37;;;8.90;1.00;;;;;;6283127;28;20375;-52
2022/03/26 06:41:24;;;;;;;48.93;31.23;;;9.10;1.00;;;;;;6282171;28;20515;-54
2022/03/26 06:44:27;;;;;;;48.93;32.07;;;9.10;1.00;;;;;;6283032;28;20328;-52
2022/03/26 06:47:31;;;;;;;49.60;30.77;;;9.10;1.00;;;;;;6283518;28;20229;-52
2022/03/26 06:50:34;;;;;;;45.63;29.93;;;9.40;1.00;;;;;;6283019;28;20719;-51
2022/03/26 06:53:37;;;;;;;44.43;28.70;;;9.50;1.00;;;;;;6279946;28;20241;-52
2022/03/26 06:56:41;;;;;;;39.93;29.27;;;9.60;1.00;;;;;;6283914;28;20241;-53
2022/03/26 06:59:45;;;;;;;39.73;28.03;;;10.00;1.00;;;;;;6283213;28;20233;-52
2022/03/26 07:02:48;;;;;;;38.40;28.23;;;10.80;1.00;;;;;;6277178;28;20237;-52
2022/03/26 07:05:51;;;;;;;42.00;29.33;;;11.20;1.00;;;;;;6282287;28;20233;-52
2022/03/26 07:08:54;;;;;;;42.50;28.93;;;11.10;1.00;;;;;;6282004;28;20328;-52
2022/03/26 07:11:58;;;;;;;39.97;27.87;;;11.00;1.00;;;;;;6281491;28;20379;-53
2022/03/26 07:15:01;;;;;;;44.30;28.30;;;11.30;1.00;;;;;;6279607;28;20237;-52
2022/03/26 07:18:03;;;;;;;41.27;27.37;;;11.70;1.00;;;;;;6284413;28;20242;-52
2022/03/26 07:21:06;;;;;;;41.57;29.03;;;11.60;1.00;;;;;;6281115;28;20234;-53
2022/03/26 07:24:09;;;;;;;41.60;29.80;;;11.40;1.00;;;;;;6279262;28;20310;-53
2022/03/26 07:27:13;;;;;;;41.07;28.70;;;11.40;1.00;;;;;;6279327;28;20229;-53
2022/03/26 07:30:16;;;;;;;40.83;27.70;;;11.40;1.00;;;;;;6280921;28;20295;-52
2022/03/26 07:33:19;;;;;;;44.77;30.33;;;11.40;1.00;;;;;;6282255;28;20229;-52
2022/03/26 07:36:22;;;;;;;39.90;29.33;;;11.30;1.00;;;;;;6257467;28;20241;-53
2022/03/26 07:39:25;;;;;;;42.90;28.67;;;11.30;1.00;;;;;;6267213;28;20312;-52
2022/03/26 07:42:29;;;;;;;41.50;28.70;;;11.30;1.00;;;;;;6282881;28;20742;-53
2022/03/26 07:45:31;;;;;;;43.77;28.27;;;11.40;1.00;;;;;;6280617;28;20336;-53
2022/03/26 07:48:34;;;;;;;34.40;27.20;;;11.30;1.00;;;;;;6281724;28;20739;-51
2022/03/26 07:51:37;;;;;;;51.43;29.33;;;11.30;1.00;;;;;;6282810;28;20237;-56
2022/03/26 07:54:40;;;;;;;37.93;26.77;;;11.20;1.00;;;;;;6280774;28;20233;-53
2022/03/26 07:57:44;;;;;;;41.23;27.00;;;11.30;1.00;;;;;;6281135;28;20352;-53
2022/03/26 08:00:48;;;;;;;36.87;27.70;;;11.30;1.00;;;;;;6280577;28;20226;-52
2022/03/26 08:03:54;;;;;;;40.83;28.20;;;11.30;1.00;;;;;;6273294;28;20252;-53
2022/03/26 08:06:57;;;;;;;39.53;27.83;;;11.40;1.00;;;;;;6278160;28;20249;-52
2022/03/26 08:09:59;;;;;;;37.97;27.53;;;11.60;1.00;;;;;;6277545;28;20316;-53
2022/03/26 08:13:03;;;;;;;42.20;27.33;;;11.70;1.00;;;;;;6281645;28;20298;-53
2022/03/26 08:16:07;;;;;;;40.50;27.93;;;11.90;1.00;;;;;;6276911;28;20473;-53
2022/03/26 08:19:10;;;;;;;39.53;27.23;;;12.00;1.00;;;;;;6275208;28;20241;-53
2022/03/26 08:22:12;;;;;;;41.13;27.87;;;12.20;1.00;;;;;;6280812;28;20233;-52
2022/03/26 08:26:19;;;;;;;39.17;26.83;;;12.30;1.00;;;;;;6273813;28;20792;-53
2022/03/26 08:28:39;;;;;;;35.60;26.37;;;12.40;1.00;;;;;;6278753;28;20264;-52
2022/03/26 08:31:42;;;;;;;39.87;25.70;;;12.60;1.00;;;;;;6285283;28;20240;-53
2022/03/26 08:34:45;;;;;;;36.50;25.33;;;12.70;1.00;;;;;;6279381;28;20478;-52
2022/03/26 08:37:48;;;;;;;41.00;24.03;;;12.80;1.00;;;;;;6284278;28;20254;-52
2022/03/26 08:40:50;;;;;;;35.70;23.97;;;12.90;1.00;;;;;;6282203;28;20221;-53
2022/03/26 08:43:54;;;;;;;30.83;24.10;;;13.00;1.00;;;;;;6278441;28;20598;-54
2022/03/26 08:47:02;;;;;;;37.67;24.27;;;13.10;1.00;;;;;;6285963;28;20244;-53
2022/03/26 08:50:06;;;;;;;29.87;21.37;;;13.20;1.00;;;;;;6285559;28;20240;-53
2022/03/26 08:53:09;;;;;;;28.50;22.30;;;13.40;1.00;;;;;;6281106;28;20233;-53
2022/03/26 08:56:12;;;;;;;28.43;22.17;;;13.70;1.00;;;;;;6285197;28;20317;-53
2022/03/26 08:59:16;;;;;;;24.00;20.27;;;13.90;1.00;;;;;;6284890;28;20718;-53
2022/03/26 09:02:19;;;;;;;25.07;21.70;;;14.10;1.00;;;;;;6284465;28;20229;-54
2022/03/26 09:05:23;;;;;;;30.03;22.20;;;14.10;1.00;;;;;;6285494;28;20252;-53
2022/03/26 09:08:26;;;;;;;27.97;22.43;;;14.10;1.00;;;;;;6284430;28;20313;-54
2022/03/26 09:11:28;;;;;;;27.50;20.97;;;14.20;1.00;;;;;;6279305;28;20240;-52
2022/03/26 09:14:32;;;;;;;29.30;21.60;;;14.30;1.00;;;;;;6284684;28;20237;-52
2022/03/26 09:17:36;;;;;;;25.70;21.77;;;14.30;1.00;;;;;;6285252;28;20252;-52
2022/03/26 09:20:39;;;;;;;27.77;21.87;;;14.30;1.00;;;;;;6286133;28;20532;-53
2022/03/26 09:23:42;;;;;;;24.17;20.33;;;14.30;1.00;;;;;;6277581;28;20383;-53
2022/03/26 09:26:45;;;;;;;28.53;20.80;;;14.40;1.00;;;;;;6283511;28;20318;-53
2022/03/26 09:29:50;;;;;;;22.97;19.20;;;14.60;1.00;;;;;;6281902;28;20546;-53
2022/03/26 09:32:54;;;;;;;22.77;18.77;;;14.90;1.00;;;;;;6285274;28;20225;-53
2022/03/26 09:35:56;;;;;;;22.43;18.17;;;15.30;1.00;;;;;;6283403;28;20263;-52
2022/03/26 09:39:01;;;;;;;20.50;17.10;;;15.60;1.00;;;;;;6281816;28;20363;-52
2022/03/26 09:42:05;;;;;;;19.20;16.67;;;15.50;1.00;;;;;;6284967;28;20522;-53
2022/03/26 09:45:10;;;;;;;19.57;16.87;;;15.20;1.00;;;;;;6285477;28;20229;-52
2022/03/26 09:48:13;;;;;;;19.27;15.07;;;15.00;1.00;;;;;;6283102;28;20677;-53
2022/03/26 09:51:21;;;;;;;23.93;16.17;;;14.80;1.00;;;;;;6285001;28;22442;-54
2022/03/26 09:54:24;;;;;;;22.10;17.60;;;14.60;1.00;;;;;;6283053;28;20245;-53
2022/03/26 09:57:27;;;;;;;23.67;17.77;;;14.40;1.00;;;;;;6289501;28;20256;-54
2022/03/26 10:00:31;;;;;;;21.97;17.43;;;14.40;1.00;;;;;;6283771;28;20869;-54
2022/03/26 10:03:38;;;;;;;25.03;18.47;;;14.50;1.00;;;;;;6266813;28;20257;-50
2022/03/26 10:06:49;;;;;;;21.87;18.27;;;14.60;1.00;;;;;;6288255;28;20245;-54
2022/03/26 10:09:55;;;;;;;24.03;18.03;;;14.60;1.00;;;;;;6288347;28;20320;-53
2022/03/26 10:12:58;;;;;;;25.47;18.70;;;14.60;1.00;;;;;;6282129;28;20324;-53
2022/03/26 10:16:03;;;;;;;21.07;18.53;;;14.70;1.00;;;;;;6286904;28;20339;-55
2022/03/26 10:19:07;;;;;;;24.43;18.23;;;14.90;1.00;;;;;;6287050;28;20312;-54
2022/03/26 10:22:23;;;;;;;26.13;20.13;;;15.00;1.00;;;;;;6282754;28;20531;-53
2022/03/26 10:25:26;;;;;;;27.53;20.87;;;15.00;1.00;;;;;;6283849;28;20251;-53
2022/03/26 10:28:31;;;;;;;21.33;19.00;;;14.90;1.00;;;;;;6283681;28;20404;-53
2022/03/26 10:35:03;;;;;;;21.53;19.07;;;14.80;1.00;;;;;;6275244;28;20694;-53
2022/03/26 10:38:06;;;;;;;28.13;19.20;;;14.80;1.00;;;;;;6282237;28;20614;-54
2022/03/26 10:41:11;;;;;;;22.67;18.40;;;14.80;1.00;;;;;;6283429;28;20777;-52
2022/03/26 10:44:16;;;;;;;24.43;19.43;;;14.80;1.00;;;;;;6279712;28;20237;-53
2022/03/26 10:47:21;;;;;;;23.60;19.23;;;14.90;1.00;;;;;;6283797;28;20318;-53
2022/03/26 10:50:24;;;;;;;21.80;18.40;;;15.10;1.00;;;;;;6279852;28;20240;-53
2022/03/26 10:53:34;;;;;;;26.77;19.13;;;15.20;1.00;;;;;;6282108;28;20275;-53
2022/03/26 10:56:38;;;;;;;26.50;20.87;;;15.10;1.00;;;;;;6279318;28;20312;-54
2022/03/26 10:59:41;;;;;;;24.03;19.70;;;15.10;1.00;;;;;;6277110;28;20841;-53
2022/03/26 11:02:46;;;;;;;25.00;20.40;;;15.20;1.00;;;;;;6288287;28;20290;-53
2022/03/26 11:05:50;;;;;;;27.23;20.73;;;15.20;1.00;;;;;;6276183;28;20229;-52
2022/03/26 11:08:59;;;;;;;28.93;22.07;;;15.10;1.00;;;;;;6278285;28;20228;-53
2022/03/26 11:12:05;;;;;;;27.53;21.27;;;14.90;1.00;;;;;;6279501;28;20249;-52
2022/03/26 11:15:12;;;;;;;28.83;20.50;;;14.90;1.00;;;;;;6282759;28;20324;-53
2022/03/26 11:18:45;;;;;;;28.60;22.30;;;14.90;1.00;;;;;;6282795;28;20233;-53
2022/03/26 11:22:23;;;;;;;31.67;22.00;;;14.90;1.00;;;;;;6277830;28;20229;-53
2022/03/26 11:25:53;;;;;;;27.93;21.97;;;15.10;1.00;;;;;;6278791;28;20606;-53
2022/03/26 11:29:09;;;;;;;31.03;23.07;;;15.20;1.00;;;;;;6280790;28;20752;-54
2022/03/26 11:32:19;;;;;;;29.47;23.13;;;15.30;1.00;;;;;;6281639;28;20233;-52
2022/03/26 11:35:23;;;;;;;27.80;22.77;;;15.30;1.00;;;;;;6278834;28;20244;-54
2022/03/26 11:38:28;;;;;;;30.03;23.40;;;15.20;1.00;;;;;;6288256;28;20733;-53
2022/03/26 11:41:33;;;;;;;32.03;24.37;;;15.30;1.00;;;;;;6280105;28;20233;-53
2022/03/26 11:44:35;;;;;;;30.10;23.73;;;15.30;1.00;;;;;;6284527;28;20614;-53
2022/03/26 11:51:20;;;;;;;31.60;24.00;;;15.50;1.00;;;;;;6282796;28;20229;-53
2022/03/26 11:54:22;;;;;;;32.00;23.67;;;15.50;1.00;;;;;;6275562;28;20237;-53
2022/03/26 11:57:26;;;;;;;29.33;23.43;;;15.50;1.00;;;;;;6286284;28;20279;-53
2022/03/26 12:00:29;;;;;;;33.97;23.20;;;15.50;1.00;;;;;;6280933;28;20843;-53
2022/03/26 12:03:43;;;;;;;32.97;24.10;;;15.30;1.00;;;;;;6281538;28;20244;-53
2022/03/26 12:06:50;;;;;;;34.53;24.20;;;15.30;1.00;;;;;;6276030;28;20233;-54
2022/03/26 12:10:09;;;;;;;31.17;24.17;;;15.30;1.00;;;;;;6280916;28;20324;-53
2022/03/26 12:13:22;;;;;;;30.37;24.37;;;15.30;1.00;;;;;;6281737;28;20230;-53
2022/03/26 12:16:53;;;;;;;29.40;24.60;;;15.50;1.00;;;;;;6281825;28;20241;-53
2022/03/26 12:20:19;;;;;;;35.07;24.70;;;15.50;1.00;;;;;;6282427;28;20813;-53
2022/03/26 12:23:28;;;;;;;34.53;25.80;;;15.30;1.00;;;;;;6277927;28;20316;-53
2022/03/26 12:26:31;;;;;;;34.93;25.83;;;15.30;1.00;;;;;;6285809;28;20335;-53
2022/03/26 12:29:38;;;;;;;36.20;25.47;;;15.30;1.00;;;;;;6274685;28;20251;-55
2022/03/26 12:32:42;;;;;;;37.53;26.47;;;15.10;1.00;;;;;;6281360;28;20233;-53
2022/03/26 12:35:46;;;;;;;34.83;26.40;;;15.10;1.00;;;;;;6281763;28;20252;-54
2022/03/26 12:38:52;;;;;;;38.23;26.87;;;14.90;1.00;;;;;;6285579;28;20314;-52
2022/03/26 12:41:55;;;;;;;39.60;28.10;;;14.70;1.00;;;;;;6280510;28;20784;-51
2022/03/26 12:44:58;;;;;;;40.33;28.73;;;14.60;1.00;;;;;;6281076;28;20252;-53
2022/03/26 12:48:00;;;;;;;39.17;28.13;;;14.60;1.00;;;;;;6280607;28;20258;-52
2022/03/26 12:51:08;;;;;;;39.43;27.87;;;14.60;1.00;;;;;;6280467;28;20233;-53
2022/03/26 12:54:14;;;;;;;43.83;28.50;;;14.60;1.00;;;;;;6280630;28;20509;-53
2022/03/26 12:57:17;;;;;;;39.33;27.33;;;14.60;1.00;;;;;;6281715;28;20240;-52
2022/03/26 13:00:21;;;;;;;39.40;27.77;;;14.60;1.00;;;;;;6279406;28;20237;-53
2022/03/26 13:03:27;;;;;;;35.87;27.20;;;14.60;1.00;;;;;;6281194;28;20755;-52
2022/03/26 13:06:31;;;;;;;37.53;26.10;;;14.50;1.00;;;;;;6279223;28;20268;-52
2022/03/26 13:09:35;;;;;;;39.20;24.90;;;14.30;1.00;;;;;;6283554;28;20248;-52
2022/03/26 13:12:37;;;;;;;31.40;23.87;;;14.30;1.00;;;;;;6282171;28;20232;-53
2022/03/26 13:16:01;;;;;;;31.10;23.57;;;14.10;1.00;;;;;;6277691;28;20760;-53
2022/03/26 13:19:05;;;;;;;34.67;24.00;;;14.00;1.00;;;;;;6285278;28;20253;-52
2022/03/26 13:22:19;;;;;;;26.60;21.60;;;13.90;1.00;;;;;;6284772;28;20237;-53
2022/03/26 13:25:23;;;;;;;34.20;22.50;;;13.70;1.00;;;;;;6283926;28;20375;-53
2022/03/26 13:28:33;;;;;;;28.17;21.57;;;13.60;1.00;;;;;;6283438;28;20617;-53
2022/03/26 13:31:42;;;;;;;33.27;20.93;;;13.60;1.00;;;;;;6284928;28;20239;-54
2022/03/26 13:34:47;;;;;;;26.97;20.90;;;13.50;1.00;;;;;;6279838;28;20234;-53
2022/03/26 13:37:50;;;;;;;28.47;19.80;;;13.40;1.00;;;;;;6290011;28;20622;-52
2022/03/26 13:40:54;;;;;;;24.93;17.80;;;13.20;1.00;;;;;;6286447;28;20608;-52
2022/03/26 13:43:57;;;;;;;23.80;18.07;;;13.00;1.00;;;;;;6277619;28;20251;-53
2022/03/26 13:47:01;;;;;;;23.63;17.43;;;12.90;1.00;;;;;;6287111;28;20526;-53
2022/03/26 13:50:08;;;;;;;18.77;15.97;;;12.80;1.00;;;;;;6288966;28;20725;-52
2022/03/26 13:53:19;;;;;;;21.30;16.53;;;12.80;1.00;;;;;;6281831;28;21274;-52
2022/03/26 13:56:28;;;;;;;18.97;15.37;;;12.70;1.00;;;;;;6283860;28;20713;-53
2022/03/26 13:59:36;;;;;;;20.10;14.77;;;12.70;1.00;;;;;;6282060;28;20322;-52
2022/03/26 14:02:43;;;;;;;18.87;15.60;;;12.80;1.00;;;;;;6280492;28;20263;-52
2022/03/26 14:05:50;;;;;;;17.33;14.10;;;12.80;1.00;;;;;;6281909;28;20244;-53
2022/03/26 14:08:53;;;;;;;16.70;14.23;;;12.80;1.00;;;;;;6283967;28;20232;-52
2022/03/26 14:11:58;;;;;;;17.90;14.67;;;12.70;1.00;;;;;;6282313;28;20775;-53
2022/03/26 14:15:00;;;;;;;17.23;13.47;;;12.70;1.00;;;;;;6282484;28;20278;-51
2022/03/26 14:18:04;;;;;;;14.53;12.80;;;12.80;1.00;;;;;;6283338;28;20574;-51
2022/03/26 14:21:08;;;;;;;15.03;13.03;;;12.60;1.00;;;;;;6279670;28;20368;-52
2022/03/26 14:24:10;;;;;;;15.20;12.87;;;12.60;1.00;;;;;;6284898;28;20835;-53
2022/03/26 14:27:14;;;;;;;14.97;12.57;;;12.70;1.00;;;;;;6286010;28;20236;-51
2022/03/26 14:30:17;;;;;;;14.10;12.63;;;12.70;1.00;;;;;;6283608;28;20233;-53
2022/03/26 14:33:20;;;;;;;15.23;13.23;;;12.80;1.00;;;;;;6282978;28;20241;-53
2022/03/26 14:36:23;;;;;;;13.77;11.63;;;12.80;1.00;;;;;;6288654;28;20246;-52
2022/03/26 14:39:25;;;;;;;14.67;11.93;;;12.80;1.00;;;;;;6282571;28;20810;-52
2022/03/26 14:42:29;;;;;;;13.63;12.23;;;12.70;1.00;;;;;;6282206;28;20310;-53
2022/03/26 14:45:32;;;;;;;14.37;12.43;;;12.70;1.00;;;;;;6282125;28;20267;-51
2022/03/26 14:48:35;;;;;;;16.77;11.57;;;12.70;1.00;;;;;;6282473;28;20601;-53
2022/03/26 14:51:51;;;;;;;13.37;11.37;;;12.70;1.00;;;;;;6283854;28;20277;-52
2022/03/26 14:54:54;;;;;;;12.70;11.17;;;12.70;1.00;;;;;;6282100;28;20368;-52
2022/03/26 14:57:58;;;;;;;12.53;10.47;;;12.70;1.00;;;;;;6281212;28;20556;-53
2022/03/26 15:01:02;;;;;;;12.03;10.83;;;12.70;1.00;;;;;;6282832;28;20377;-52
2022/03/26 15:04:05;;;;;;;13.13;10.73;;;12.80;1.00;;;;;;6283197;28;20368;-52
2022/03/26 15:07:12;;;;;;;10.83;9.83;;;12.80;1.00;;;;;;6288392;28;20279;-54
2022/03/26 15:10:16;;;;;;;11.37;9.60;;;12.80;1.00;;;;;;6283452;28;20468;-52
2022/03/26 15:13:20;;;;;;;13.27;10.67;;;12.80;1.00;;;;;;6280827;28;20256;-53
2022/03/26 15:16:23;;;;;;;11.27;10.07;;;12.80;1.00;;;;;;6283930;28;20322;-52
2022/03/26 15:19:26;;;;;;;11.20;10.20;;;12.80;1.00;;;;;;6282313;28;20630;-53
2022/03/26 15:22:28;;;;;;;11.60;10.33;;;12.70;1.00;;;;;;6284864;28;20380;-52
2022/03/26 15:25:33;;;;;;;9.80;9.00;;;12.80;1.00;;;;;;6274126;28;20302;-52
2022/03/26 15:28:38;;;;;;;9.73;8.83;;;12.80;1.00;;;;;;6284163;28;20787;-52
2022/03/26 15:31:41;;;;;;;11.10;9.93;;;12.70;1.00;;;;;;6281362;28;20237;-53
2022/03/26 15:34:44;;;;;;;10.13;9.13;;;12.70;1.00;;;;;;6277370;28;20922;-52
2022/03/26 15:37:47;;;;;;;10.23;9.33;;;12.70;1.00;;;;;;6288435;28;20872;-57
2022/03/26 15:40:49;;;;;;;10.47;9.53;;;12.60;1.00;;;;;;6278530;28;20665;-53
2022/03/26 15:43:53;;;;;;;11.07;9.90;;;12.50;1.00;;;;;;6280959;28;20237;-53
2022/03/26 15:46:57;;;;;;;11.07;10.03;;;12.50;1.00;;;;;;6278850;28;20237;-52
2022/03/26 15:50:00;;;;;;;11.67;10.57;;;12.60;1.00;;;;;;6281529;28;20233;-52
2022/03/26 15:53:03;;;;;;;10.73;9.63;;;12.50;1.00;;;;;;6281124;28;20229;-52
2022/03/26 15:56:06;;;;;;;10.83;9.93;;;12.60;1.00;;;;;;6281047;28;20748;-52
2022/03/26 15:59:11;;;;;;;11.90;10.80;;;12.60;1.00;;;;;;6280591;28;20237;-54